YBBN/BNE METAR and TAF weather

Enter ICAO airport designator
Station Type Date Time Source
YBBN METAR 2020/07/10 15:00 UTC NOAA

YBBN 101500Z 21004KT 9999 4500NW -SHRA FEW013 BKN025 BKN041 15/15 Q1023


Station Type Date Time Source
YBBN Decoded METAR 2020/07/10 15:00 UTC NOAA

Brisbane Airport M. O, Australia (YBBN) 27-23S 153-06E 5M
Jul 10, 2020 - 11:00 AM EDT / 2020.07.10 1500 UTC
Wind: from the SSW (210 degrees) at 5 MPH (4 KT):0
Visibility: greater than 7 mile(s):0
Sky conditions: mostly cloudy
Weather: light rain showers
Temperature: 59 F (15 C)
Dew Point: 59 F (15 C)
Relative Humidity: 100%
Pressure (altimeter): 30.21 in. Hg (1023 hPa)
ob: YBBN 101500Z 21004KT 9999 4500NW -SHRA FEW013 BKN025 BKN041 15/15 Q1023
cycle: 15

Station Type Date Time Source
YBBN TAF 2020/07/10 12:33 UTC NOAA

TAF YBBN 101102Z 1012/1118 23004KT 9999 -SHRA SCT020 BKN045
FM102200 23005KT 9999 NSW SCT025
FM110200 02011KT 9999 SCT030
FM110900 34006KT 9999 FEW025
FM111200 29005KT 9999 FEW025 INTER 1012/1021 3000 SHRA BKN012

Example: see airport list